sensor_id;sensor_type;location;lat;lon;timestamp;P1;durP1;ratioP1;P2;durP2;ratioP2
73113;SDS011;61301;51.956;5.876;2023-05-10T00:00:39;23.63;;;21.13;;
73113;SDS011;61301;51.956;5.876;2023-05-10T00:03:05;21.75;;;18.83;;
73113;SDS011;61301;51.956;5.876;2023-05-10T00:05:31;25.00;;;21.77;;
73113;SDS011;61301;51.956;5.876;2023-05-10T00:07:58;18.85;;;16.75;;
73113;SDS011;61301;51.956;5.876;2023-05-10T00:10:24;13.07;;;11.15;;
73113;SDS011;61301;51.956;5.876;2023-05-10T00:12:50;10.38;;;8.60;;
73113;SDS011;61301;51.956;5.876;2023-05-10T00:15:16;22.17;;;18.95;;
73113;SDS011;61301;51.956;5.876;2023-05-10T00:17:41;22.35;;;19.23;;
73113;SDS011;61301;51.956;5.876;2023-05-10T00:20:08;25.50;;;22.77;;
73113;SDS011;61301;51.956;5.876;2023-05-10T00:22:34;29.75;;;24.98;;
73113;SDS011;61301;51.956;5.876;2023-05-10T00:25:01;17.63;;;15.73;;
73113;SDS011;61301;51.956;5.876;2023-05-10T00:27:27;25.88;;;23.00;;
73113;SDS011;61301;51.956;5.876;2023-05-10T00:29:53;26.48;;;22.92;;
73113;SDS011;61301;51.956;5.876;2023-05-10T00:32:19;32.03;;;27.17;;
73113;SDS011;61301;51.956;5.876;2023-05-10T00:34:45;28.52;;;23.77;;
73113;SDS011;61301;51.956;5.876;2023-05-10T00:37:11;22.38;;;18.90;;
73113;SDS011;61301;51.956;5.876;2023-05-10T00:39:37;27.67;;;23.70;;
73113;SDS011;61301;51.956;5.876;2023-05-10T00:42:03;22.98;;;19.65;;
73113;SDS011;61301;51.956;5.876;2023-05-10T00:44:30;24.42;;;20.50;;
73113;SDS011;61301;51.956;5.876;2023-05-10T00:46:56;23.85;;;19.73;;
73113;SDS011;61301;51.956;5.876;2023-05-10T00:49:23;25.35;;;21.45;;
73113;SDS011;61301;51.956;5.876;2023-05-10T00:51:49;20.90;;;17.38;;
73113;SDS011;61301;51.956;5.876;2023-05-10T00:54:15;15.02;;;11.85;;
73113;SDS011;61301;51.956;5.876;2023-05-10T00:56:42;14.52;;;12.07;;
73113;SDS011;61301;51.956;5.876;2023-05-10T00:59:14;13.98;;;11.65;;
73113;SDS011;61301;51.956;5.876;2023-05-10T01:01:42;22.48;;;18.73;;
73113;SDS011;61301;51.956;5.876;2023-05-10T01:04:11;20.73;;;17.38;;
73113;SDS011;61301;51.956;5.876;2023-05-10T01:06:41;19.45;;;16.88;;
73113;SDS011;61301;51.956;5.876;2023-05-10T01:09:08;26.77;;;21.63;;
73113;SDS011;61301;51.956;5.876;2023-05-10T01:11:34;29.42;;;24.67;;
73113;SDS011;61301;51.956;5.876;2023-05-10T01:14:02;31.17;;;26.33;;
73113;SDS011;61301;51.956;5.876;2023-05-10T01:16:29;36.15;;;29.77;;
73113;SDS011;61301;51.956;5.876;2023-05-10T01:18:58;34.17;;;27.65;;
73113;SDS011;61301;51.956;5.876;2023-05-10T01:21:29;37.67;;;29.08;;
73113;SDS011;61301;51.956;5.876;2023-05-10T01:29:42;36.35;;;28.10;;
73113;SDS011;61301;51.956;5.876;2023-05-10T01:35:17;33.42;;;25.50;;
73113;SDS011;61301;51.956;5.876;2023-05-10T01:40:59;27.10;;;20.95;;
73113;SDS011;61301;51.956;5.876;2023-05-10T01:43:43;32.78;;;24.08;;
73113;SDS011;61301;51.956;5.876;2023-05-10T01:46:28;35.88;;;25.08;;
73113;SDS011;61301;51.956;5.876;2023-05-10T01:48:58;30.92;;;22.17;;
73113;SDS011;61301;51.956;5.876;2023-05-10T01:51:29;32.58;;;24.75;;
73113;SDS011;61301;51.956;5.876;2023-05-10T01:54:01;33.30;;;24.95;;
73113;SDS011;61301;51.956;5.876;2023-05-10T01:56:29;29.88;;;23.00;;
73113;SDS011;61301;51.956;5.876;2023-05-10T01:58:57;32.72;;;24.30;;
73113;SDS011;61301;51.956;5.876;2023-05-10T02:01:25;36.75;;;27.48;;
73113;SDS011;61301;51.956;5.876;2023-05-10T02:03:53;34.45;;;24.88;;
73113;SDS011;61301;51.956;5.876;2023-05-10T02:06:21;27.30;;;19.25;;
73113;SDS011;61301;51.956;5.876;2023-05-10T02:08:49;35.20;;;25.67;;
73113;SDS011;61301;51.956;5.876;2023-05-10T02:11:17;26.25;;;20.92;;
73113;SDS011;61301;51.956;5.876;2023-05-10T02:13:47;26.05;;;19.75;;
73113;SDS011;61301;51.956;5.876;2023-05-10T02:16:15;30.90;;;22.58;;
73113;SDS011;61301;51.956;5.876;2023-05-10T02:18:43;30.35;;;23.30;;
73113;SDS011;61301;51.956;5.876;2023-05-10T02:21:11;38.63;;;24.67;;
73113;SDS011;61301;51.956;5.876;2023-05-10T02:23:39;38.40;;;25.27;;
73113;SDS011;61301;51.956;5.876;2023-05-10T02:26:05;35.35;;;26.83;;
73113;SDS011;61301;51.956;5.876;2023-05-10T02:28:32;33.40;;;24.67;;
73113;SDS011;61301;51.956;5.876;2023-05-10T02:30:59;31.00;;;22.00;;
73113;SDS011;61301;51.956;5.876;2023-05-10T02:33:26;39.53;;;28.20;;
73113;SDS011;61301;51.956;5.876;2023-05-10T02:35:53;43.80;;;30.25;;
73113;SDS011;61301;51.956;5.876;2023-05-10T02:38:21;33.45;;;23.85;;
73113;SDS011;61301;51.956;5.876;2023-05-10T02:40:49;42.42;;;27.52;;
73113;SDS011;61301;51.956;5.876;2023-05-10T02:43:16;42.85;;;29.42;;
73113;SDS011;61301;51.956;5.876;2023-05-10T02:45:43;40.28;;;27.00;;
73113;SDS011;61301;51.956;5.876;2023-05-10T02:48:13;43.58;;;29.73;;
73113;SDS011;61301;51.956;5.876;2023-05-10T02:50:39;45.63;;;31.40;;
73113;SDS011;61301;51.956;5.876;2023-05-10T02:53:10;48.50;;;33.25;;
73113;SDS011;61301;51.956;5.876;2023-05-10T02:55:41;47.63;;;34.17;;
73113;SDS011;61301;51.956;5.876;2023-05-10T02:58:10;50.20;;;33.75;;
73113;SDS011;61301;51.956;5.876;2023-05-10T03:00:36;51.22;;;36.22;;
73113;SDS011;61301;51.956;5.876;2023-05-10T03:03:02;47.35;;;32.97;;
73113;SDS011;61301;51.956;5.876;2023-05-10T03:05:28;53.80;;;35.55;;
73113;SDS011;61301;51.956;5.876;2023-05-10T03:07:58;46.75;;;32.50;;
73113;SDS011;61301;51.956;5.876;2023-05-10T03:10:27;44.97;;;30.25;;
73113;SDS011;61301;51.956;5.876;2023-05-10T03:18:16;45.72;;;31.63;;
73113;SDS011;61301;51.956;5.876;2023-05-10T03:20:46;52.22;;;34.85;;
73113;SDS011;61301;51.956;5.876;2023-05-10T03:25:43;38.30;;;28.10;;
73113;SDS011;61301;51.956;5.876;2023-05-10T03:28:11;48.67;;;34.25;;
73113;SDS011;61301;51.956;5.876;2023-05-10T03:30:38;54.28;;;35.92;;
73113;SDS011;61301;51.956;5.876;2023-05-10T03:33:06;54.70;;;36.88;;
73113;SDS011;61301;51.956;5.876;2023-05-10T03:35:36;47.47;;;33.55;;
73113;SDS011;61301;51.956;5.876;2023-05-10T03:38:02;58.65;;;39.75;;
73113;SDS011;61301;51.956;5.876;2023-05-10T03:40:28;47.45;;;31.92;;
73113;SDS011;61301;51.956;5.876;2023-05-10T03:43:00;59.47;;;37.50;;
73113;SDS011;61301;51.956;5.876;2023-05-10T03:45:26;45.58;;;31.30;;
73113;SDS011;61301;51.956;5.876;2023-05-10T03:47:52;51.33;;;36.30;;
73113;SDS011;61301;51.956;5.876;2023-05-10T03:50:19;56.03;;;38.97;;
73113;SDS011;61301;51.956;5.876;2023-05-10T03:52:47;51.78;;;35.38;;
73113;SDS011;61301;51.956;5.876;2023-05-10T03:55:13;49.75;;;34.55;;
73113;SDS011;61301;51.956;5.876;2023-05-10T03:57:39;46.17;;;31.83;;
73113;SDS011;61301;51.956;5.876;2023-05-10T04:00:06;44.75;;;31.58;;
73113;SDS011;61301;51.956;5.876;2023-05-10T04:02:40;60.80;;;38.65;;
73113;SDS011;61301;51.956;5.876;2023-05-10T04:05:09;55.08;;;35.33;;
73113;SDS011;61301;51.956;5.876;2023-05-10T04:07:35;46.45;;;32.63;;
73113;SDS011;61301;51.956;5.876;2023-05-10T04:10:01;50.55;;;33.03;;
73113;SDS011;61301;51.956;5.876;2023-05-10T04:12:27;42.60;;;29.33;;
73113;SDS011;61301;51.956;5.876;2023-05-10T04:14:53;39.38;;;27.33;;
73113;SDS011;61301;51.956;5.876;2023-05-10T04:17:19;42.30;;;28.65;;
73113;SDS011;61301;51.956;5.876;2023-05-10T04:19:45;40.40;;;29.17;;
73113;SDS011;61301;51.956;5.876;2023-05-10T04:22:11;37.60;;;26.20;;
73113;SDS011;61301;51.956;5.876;2023-05-10T04:24:37;47.85;;;29.35;;
73113;SDS011;61301;51.956;5.876;2023-05-10T04:27:03;28.25;;;20.70;;
73113;SDS011;61301;51.956;5.876;2023-05-10T04:29:29;30.40;;;21.77;;
73113;SDS011;61301;51.956;5.876;2023-05-10T04:31:55;39.92;;;27.55;;
73113;SDS011;61301;51.956;5.876;2023-05-10T04:34:22;27.25;;;18.88;;
73113;SDS011;61301;51.956;5.876;2023-05-10T04:36:48;40.70;;;28.00;;
73113;SDS011;61301;51.956;5.876;2023-05-10T04:39:14;42.90;;;29.85;;
73113;SDS011;61301;51.956;5.876;2023-05-10T04:41:40;33.05;;;24.02;;
73113;SDS011;61301;51.956;5.876;2023-05-10T04:44:06;42.97;;;28.83;;
73113;SDS011;61301;51.956;5.876;2023-05-10T04:46:32;35.95;;;25.40;;
73113;SDS011;61301;51.956;5.876;2023-05-10T04:48:58;27.55;;;19.73;;
73113;SDS011;61301;51.956;5.876;2023-05-10T04:51:24;26.40;;;18.55;;
73113;SDS011;61301;51.956;5.876;2023-05-10T04:53:50;23.60;;;17.25;;
73113;SDS011;61301;51.956;5.876;2023-05-10T04:56:16;32.50;;;23.23;;
73113;SDS011;61301;51.956;5.876;2023-05-10T04:58:42;29.08;;;20.73;;
73113;SDS011;61301;51.956;5.876;2023-05-10T05:01:08;39.90;;;26.63;;
73113;SDS011;61301;51.956;5.876;2023-05-10T05:03:36;26.48;;;18.92;;
73113;SDS011;61301;51.956;5.876;2023-05-10T05:06:02;22.20;;;17.27;;
73113;SDS011;61301;51.956;5.876;2023-05-10T05:08:28;30.85;;;22.50;;
73113;SDS011;61301;51.956;5.876;2023-05-10T05:10:54;29.02;;;20.42;;
73113;SDS011;61301;51.956;5.876;2023-05-10T05:13:21;21.55;;;15.73;;
73113;SDS011;61301;51.956;5.876;2023-05-10T05:15:47;35.92;;;26.08;;
73113;SDS011;61301;51.956;5.876;2023-05-10T05:18:13;36.92;;;26.10;;
73113;SDS011;61301;51.956;5.876;2023-05-10T05:20:39;36.22;;;25.48;;
73113;SDS011;61301;51.956;5.876;2023-05-10T05:23:05;30.42;;;22.70;;
73113;SDS011;61301;51.956;5.876;2023-05-10T05:25:31;43.97;;;30.42;;
73113;SDS011;61301;51.956;5.876;2023-05-10T05:27:57;36.55;;;26.40;;
73113;SDS011;61301;51.956;5.876;2023-05-10T05:30:23;43.13;;;28.67;;
73113;SDS011;61301;51.956;5.876;2023-05-10T05:32:52;46.13;;;29.75;;
73113;SDS011;61301;51.956;5.876;2023-05-10T05:35:18;37.90;;;24.73;;
73113;SDS011;61301;51.956;5.876;2023-05-10T05:37:44;29.52;;;20.80;;
73113;SDS011;61301;51.956;5.876;2023-05-10T05:40:12;32.22;;;22.77;;
73113;SDS011;61301;51.956;5.876;2023-05-10T05:42:39;32.38;;;21.73;;
73113;SDS011;61301;51.956;5.876;2023-05-10T05:45:05;32.25;;;21.90;;
73113;SDS011;61301;51.956;5.876;2023-05-10T05:47:34;29.75;;;21.60;;
73113;SDS011;61301;51.956;5.876;2023-05-10T05:50:00;29.73;;;21.00;;
73113;SDS011;61301;51.956;5.876;2023-05-10T05:52:26;34.25;;;22.90;;
73113;SDS011;61301;51.956;5.876;2023-05-10T05:54:52;33.50;;;23.58;;
73113;SDS011;61301;51.956;5.876;2023-05-10T05:57:18;44.35;;;27.83;;
73113;SDS011;61301;51.956;5.876;2023-05-10T05:59:44;43.67;;;28.52;;
73113;SDS011;61301;51.956;5.876;2023-05-10T06:02:10;44.13;;;28.10;;
73113;SDS011;61301;51.956;5.876;2023-05-10T06:04:36;42.55;;;24.73;;
73113;SDS011;61301;51.956;5.876;2023-05-10T06:07:02;41.08;;;26.20;;
73113;SDS011;61301;51.956;5.876;2023-05-10T06:09:28;28.13;;;19.83;;
73113;SDS011;61301;51.956;5.876;2023-05-10T06:11:54;35.95;;;23.80;;
73113;SDS011;61301;51.956;5.876;2023-05-10T06:14:21;43.60;;;27.90;;
73113;SDS011;61301;51.956;5.876;2023-05-10T06:16:46;47.13;;;29.00;;
73113;SDS011;61301;51.956;5.876;2023-05-10T06:19:13;39.67;;;24.30;;
73113;SDS011;61301;51.956;5.876;2023-05-10T06:21:38;36.55;;;23.20;;
73113;SDS011;61301;51.956;5.876;2023-05-10T06:24:05;33.22;;;19.73;;
73113;SDS011;61301;51.956;5.876;2023-05-10T06:26:32;38.95;;;26.73;;
73113;SDS011;61301;51.956;5.876;2023-05-10T06:28:59;31.83;;;23.05;;
73113;SDS011;61301;51.956;5.876;2023-05-10T06:31:25;41.33;;;26.58;;
73113;SDS011;61301;51.956;5.876;2023-05-10T06:33:51;37.30;;;24.45;;
73113;SDS011;61301;51.956;5.876;2023-05-10T06:36:17;33.92;;;21.75;;
73113;SDS011;61301;51.956;5.876;2023-05-10T06:38:43;41.28;;;27.60;;
73113;SDS011;61301;51.956;5.876;2023-05-10T06:41:09;40.63;;;25.65;;
73113;SDS011;61301;51.956;5.876;2023-05-10T06:43:35;36.33;;;24.58;;
73113;SDS011;61301;51.956;5.876;2023-05-10T06:46:01;33.30;;;23.63;;
73113;SDS011;61301;51.956;5.876;2023-05-10T06:48:27;24.30;;;17.00;;
73113;SDS011;61301;51.956;5.876;2023-05-10T06:50:53;46.20;;;29.02;;
73113;SDS011;61301;51.956;5.876;2023-05-10T06:53:19;49.35;;;31.02;;
73113;SDS011;61301;51.956;5.876;2023-05-10T06:55:45;43.50;;;29.95;;
73113;SDS011;61301;51.956;5.876;2023-05-10T06:58:11;25.35;;;18.33;;
73113;SDS011;61301;51.956;5.876;2023-05-10T07:00:37;45.70;;;26.58;;
73113;SDS011;61301;51.956;5.876;2023-05-10T07:03:06;31.10;;;23.23;;
73113;SDS011;61301;51.956;5.876;2023-05-10T07:05:32;32.22;;;23.25;;
73113;SDS011;61301;51.956;5.876;2023-05-10T07:07:58;46.17;;;29.25;;
73113;SDS011;61301;51.956;5.876;2023-05-10T07:10:24;39.45;;;25.80;;
73113;SDS011;61301;51.956;5.876;2023-05-10T07:12:50;38.70;;;27.15;;
73113;SDS011;61301;51.956;5.876;2023-05-10T07:15:16;45.33;;;30.95;;
73113;SDS011;61301;51.956;5.876;2023-05-10T07:17:42;38.97;;;28.05;;
73113;SDS011;61301;51.956;5.876;2023-05-10T07:20:08;54.55;;;33.85;;
73113;SDS011;61301;51.956;5.876;2023-05-10T07:22:34;60.65;;;37.50;;
73113;SDS011;61301;51.956;5.876;2023-05-10T07:25:00;59.67;;;37.80;;
73113;SDS011;61301;51.956;5.876;2023-05-10T07:27:26;58.40;;;36.70;;
73113;SDS011;61301;51.956;5.876;2023-05-10T07:29:52;53.63;;;29.77;;
73113;SDS011;61301;51.956;5.876;2023-05-10T07:32:18;54.50;;;34.13;;
73113;SDS011;61301;51.956;5.876;2023-05-10T07:34:44;55.92;;;34.58;;
73113;SDS011;61301;51.956;5.876;2023-05-10T07:37:10;49.15;;;30.55;;
73113;SDS011;61301;51.956;5.876;2023-05-10T07:39:37;48.35;;;31.80;;
73113;SDS011;61301;51.956;5.876;2023-05-10T07:42:03;52.20;;;30.50;;
73113;SDS011;61301;51.956;5.876;2023-05-10T07:44:29;56.72;;;34.83;;
73113;SDS011;61301;51.956;5.876;2023-05-10T07:46:54;45.97;;;29.95;;
73113;SDS011;61301;51.956;5.876;2023-05-10T07:49:21;43.58;;;28.85;;
73113;SDS011;61301;51.956;5.876;2023-05-10T07:51:49;41.65;;;28.20;;
73113;SDS011;61301;51.956;5.876;2023-05-10T07:54:15;38.05;;;24.92;;
73113;SDS011;61301;51.956;5.876;2023-05-10T07:56:41;41.28;;;26.92;;
73113;SDS011;61301;51.956;5.876;2023-05-10T07:59:16;44.40;;;26.85;;
73113;SDS011;61301;51.956;5.876;2023-05-10T08:01:42;28.48;;;17.08;;
73113;SDS011;61301;51.956;5.876;2023-05-10T08:04:09;42.28;;;27.38;;
73113;SDS011;61301;51.956;5.876;2023-05-10T08:06:35;47.80;;;28.77;;
73113;SDS011;61301;51.956;5.876;2023-05-10T08:09:01;46.80;;;29.70;;
73113;SDS011;61301;51.956;5.876;2023-05-10T08:11:27;40.10;;;26.63;;
73113;SDS011;61301;51.956;5.876;2023-05-10T08:13:53;45.58;;;29.75;;
73113;SDS011;61301;51.956;5.876;2023-05-10T08:16:19;41.97;;;26.80;;
73113;SDS011;61301;51.956;5.876;2023-05-10T08:18:46;45.97;;;29.02;;
73113;SDS011;61301;51.956;5.876;2023-05-10T08:21:13;44.80;;;29.45;;
73113;SDS011;61301;51.956;5.876;2023-05-10T08:23:39;44.70;;;28.85;;
73113;SDS011;61301;51.956;5.876;2023-05-10T08:26:06;37.25;;;25.20;;
73113;SDS011;61301;51.956;5.876;2023-05-10T08:28:32;40.60;;;27.80;;
73113;SDS011;61301;51.956;5.876;2023-05-10T08:30:58;33.60;;;24.75;;
73113;SDS011;61301;51.956;5.876;2023-05-10T08:33:24;29.77;;;22.10;;
73113;SDS011;61301;51.956;5.876;2023-05-10T08:35:50;31.27;;;21.67;;
73113;SDS011;61301;51.956;5.876;2023-05-10T08:38:17;28.05;;;21.38;;
73113;SDS011;61301;51.956;5.876;2023-05-10T08:40:44;26.75;;;19.48;;
73113;SDS011;61301;51.956;5.876;2023-05-10T08:43:11;24.92;;;18.75;;
73113;SDS011;61301;51.956;5.876;2023-05-10T08:45:39;26.38;;;18.83;;
73113;SDS011;61301;51.956;5.876;2023-05-10T08:48:06;27.63;;;17.65;;
73113;SDS011;61301;51.956;5.876;2023-05-10T08:50:35;27.48;;;17.73;;
73113;SDS011;61301;51.956;5.876;2023-05-10T08:53:04;24.65;;;17.42;;
73113;SDS011;61301;51.956;5.876;2023-05-10T08:55:32;19.58;;;14.75;;
73113;SDS011;61301;51.956;5.876;2023-05-10T08:58:02;19.75;;;14.50;;
73113;SDS011;61301;51.956;5.876;2023-05-10T09:00:29;14.52;;;10.50;;
73113;SDS011;61301;51.956;5.876;2023-05-10T09:02:55;11.80;;;9.07;;
73113;SDS011;61301;51.956;5.876;2023-05-10T09:05:22;12.70;;;10.02;;
73113;SDS011;61301;51.956;5.876;2023-05-10T09:07:48;11.13;;;8.65;;
73113;SDS011;61301;51.956;5.876;2023-05-10T09:10:14;16.02;;;12.43;;
73113;SDS011;61301;51.956;5.876;2023-05-10T09:12:41;12.55;;;9.27;;
73113;SDS011;61301;51.956;5.876;2023-05-10T09:15:09;13.30;;;9.18;;
73113;SDS011;61301;51.956;5.876;2023-05-10T09:17:36;11.32;;;7.85;;
73113;SDS011;61301;51.956;5.876;2023-05-10T09:20:04;9.57;;;7.95;;
73113;SDS011;61301;51.956;5.876;2023-05-10T09:22:31;11.27;;;8.15;;
73113;SDS011;61301;51.956;5.876;2023-05-10T09:25:06;10.23;;;8.27;;
73113;SDS011;61301;51.956;5.876;2023-05-10T09:27:34;10.85;;;7.18;;
73113;SDS011;61301;51.956;5.876;2023-05-10T09:30:01;10.05;;;6.25;;
73113;SDS011;61301;51.956;5.876;2023-05-10T09:32:40;7.63;;;6.10;;
73113;SDS011;61301;51.956;5.876;2023-05-10T09:35:10;8.80;;;6.50;;
73113;SDS011;61301;51.956;5.876;2023-05-10T09:37:41;5.72;;;5.07;;
73113;SDS011;61301;51.956;5.876;2023-05-10T09:40:12;5.90;;;5.07;;
73113;SDS011;61301;51.956;5.876;2023-05-10T09:42:42;5.50;;;4.63;;
73113;SDS011;61301;51.956;5.876;2023-05-10T09:45:15;8.23;;;6.68;;
73113;SDS011;61301;51.956;5.876;2023-05-10T09:47:42;7.60;;;5.82;;
73113;SDS011;61301;51.956;5.876;2023-05-10T09:50:08;9.77;;;7.35;;
73113;SDS011;61301;51.956;5.876;2023-05-10T09:55:17;10.88;;;7.90;;
73113;SDS011;61301;51.956;5.876;2023-05-10T09:57:48;10.32;;;7.72;;
73113;SDS011;61301;51.956;5.876;2023-05-10T10:00:19;7.18;;;5.72;;
73113;SDS011;61301;51.956;5.876;2023-05-10T10:02:53;7.85;;;5.55;;
73113;SDS011;61301;51.956;5.876;2023-05-10T10:05:20;7.22;;;4.90;;
73113;SDS011;61301;51.956;5.876;2023-05-10T10:07:46;10.85;;;6.43;;
73113;SDS011;61301;51.956;5.876;2023-05-10T10:10:14;8.50;;;5.65;;
73113;SDS011;61301;51.956;5.876;2023-05-10T10:12:41;8.57;;;6.10;;
73113;SDS011;61301;51.956;5.876;2023-05-10T10:15:07;8.95;;;6.20;;
73113;SDS011;61301;51.956;5.876;2023-05-10T10:17:35;8.85;;;5.13;;
73113;SDS011;61301;51.956;5.876;2023-05-10T10:20:03;6.82;;;5.75;;
73113;SDS011;61301;51.956;5.876;2023-05-10T10:22:29;8.98;;;5.95;;
73113;SDS011;61301;51.956;5.876;2023-05-10T10:24:55;8.23;;;6.55;;
73113;SDS011;61301;51.956;5.876;2023-05-10T10:27:23;8.73;;;5.47;;
73113;SDS011;61301;51.956;5.876;2023-05-10T10:29:59;8.57;;;6.65;;
73113;SDS011;61301;51.956;5.876;2023-05-10T10:35:29;8.00;;;5.57;;
73113;SDS011;61301;51.956;5.876;2023-05-10T10:37:56;6.78;;;5.30;;
73113;SDS011;61301;51.956;5.876;2023-05-10T10:40:29;7.35;;;5.60;;
73113;SDS011;61301;51.956;5.876;2023-05-10T10:45:22;7.03;;;5.70;;
73113;SDS011;61301;51.956;5.876;2023-05-10T10:47:53;6.05;;;5.43;;
73113;SDS011;61301;51.956;5.876;2023-05-10T10:50:43;7.50;;;4.70;;
73113;SDS011;61301;51.956;5.876;2023-05-10T10:53:11;10.77;;;8.68;;
73113;SDS011;61301;51.956;5.876;2023-05-10T10:55:44;10.43;;;7.63;;
73113;SDS011;61301;51.956;5.876;2023-05-10T10:58:12;7.93;;;5.95;;
73113;SDS011;61301;51.956;5.876;2023-05-10T11:01:08;7.72;;;6.88;;
73113;SDS011;61301;51.956;5.876;2023-05-10T11:03:39;7.38;;;4.63;;
73113;SDS011;61301;51.956;5.876;2023-05-10T11:06:06;5.72;;;4.53;;
73113;SDS011;61301;51.956;5.876;2023-05-10T11:08:34;5.63;;;4.47;;
73113;SDS011;61301;51.956;5.876;2023-05-10T11:11:06;8.50;;;6.22;;
73113;SDS011;61301;51.956;5.876;2023-05-10T11:13:39;6.30;;;5.15;;
73113;SDS011;61301;51.956;5.876;2023-05-10T11:16:11;9.10;;;7.75;;
73113;SDS011;61301;51.956;5.876;2023-05-10T11:18:51;10.30;;;8.77;;
73113;SDS011;61301;51.956;5.876;2023-05-10T11:21:32;9.88;;;8.15;;
73113;SDS011;61301;51.956;5.876;2023-05-10T11:24:00;12.00;;;9.32;;
73113;SDS011;61301;51.956;5.876;2023-05-10T11:26:34;8.85;;;7.50;;
73113;SDS011;61301;51.956;5.876;2023-05-10T11:29:01;11.77;;;7.93;;
73113;SDS011;61301;51.956;5.876;2023-05-10T11:31:28;12.02;;;8.48;;
73113;SDS011;61301;51.956;5.876;2023-05-10T11:33:58;8.30;;;7.32;;
73113;SDS011;61301;51.956;5.876;2023-05-10T11:36:27;8.82;;;7.72;;
73113;SDS011;61301;51.956;5.876;2023-05-10T11:39:03;10.55;;;8.00;;
73113;SDS011;61301;51.956;5.876;2023-05-10T11:41:30;11.63;;;9.52;;
73113;SDS011;61301;51.956;5.876;2023-05-10T11:43:56;10.68;;;7.95;;
73113;SDS011;61301;51.956;5.876;2023-05-10T11:46:24;7.75;;;6.28;;
73113;SDS011;61301;51.956;5.876;2023-05-10T11:48:59;10.30;;;7.97;;
73113;SDS011;61301;51.956;5.876;2023-05-10T11:51:27;8.65;;;7.68;;
73113;SDS011;61301;51.956;5.876;2023-05-10T11:53:53;9.38;;;6.30;;
73113;SDS011;61301;51.956;5.876;2023-05-10T11:56:21;9.40;;;7.80;;
73113;SDS011;61301;51.956;5.876;2023-05-10T11:58:52;8.57;;;7.00;;
73113;SDS011;61301;51.956;5.876;2023-05-10T12:01:22;10.30;;;6.90;;
73113;SDS011;61301;51.956;5.876;2023-05-10T12:03:49;7.57;;;5.63;;
73113;SDS011;61301;51.956;5.876;2023-05-10T12:06:17;5.03;;;4.53;;
73113;SDS011;61301;51.956;5.876;2023-05-10T12:08:45;6.30;;;5.10;;
73113;SDS011;61301;51.956;5.876;2023-05-10T12:11:12;9.32;;;6.68;;
73113;SDS011;61301;51.956;5.876;2023-05-10T12:13:42;6.38;;;5.22;;
73113;SDS011;61301;51.956;5.876;2023-05-10T12:16:12;7.18;;;5.88;;
73113;SDS011;61301;51.956;5.876;2023-05-10T12:18:42;7.10;;;5.25;;
73113;SDS011;61301;51.956;5.876;2023-05-10T12:21:11;9.23;;;5.78;;
73113;SDS011;61301;51.956;5.876;2023-05-10T12:23:38;5.00;;;4.40;;
73113;SDS011;61301;51.956;5.876;2023-05-10T12:26:05;5.85;;;4.38;;
73113;SDS011;61301;51.956;5.876;2023-05-10T12:28:32;6.63;;;4.53;;
73113;SDS011;61301;51.956;5.876;2023-05-10T12:30:58;5.57;;;4.72;;
73113;SDS011;61301;51.956;5.876;2023-05-10T12:33:25;6.18;;;4.43;;
73113;SDS011;61301;51.956;5.876;2023-05-10T12:35:52;5.97;;;4.93;;
73113;SDS011;61301;51.956;5.876;2023-05-10T12:38:26;7.78;;;5.45;;
73113;SDS011;61301;51.956;5.876;2023-05-10T12:40:58;6.80;;;5.05;;
73113;SDS011;61301;51.956;5.876;2023-05-10T12:43:25;5.88;;;4.60;;
73113;SDS011;61301;51.956;5.876;2023-05-10T12:45:51;4.47;;;3.95;;
73113;SDS011;61301;51.956;5.876;2023-05-10T12:48:17;6.82;;;4.72;;
73113;SDS011;61301;51.956;5.876;2023-05-10T12:50:45;6.28;;;5.18;;
73113;SDS011;61301;51.956;5.876;2023-05-10T12:53:12;6.28;;;4.88;;
73113;SDS011;61301;51.956;5.876;2023-05-10T12:55:41;5.43;;;4.63;;
73113;SDS011;61301;51.956;5.876;2023-05-10T12:58:07;7.57;;;3.97;;
73113;SDS011;61301;51.956;5.876;2023-05-10T13:00:33;3.72;;;3.00;;
73113;SDS011;61301;51.956;5.876;2023-05-10T13:03:00;6.05;;;5.03;;
73113;SDS011;61301;51.956;5.876;2023-05-10T13:05:26;4.78;;;3.92;;
73113;SDS011;61301;51.956;5.876;2023-05-10T13:07:52;6.60;;;4.32;;
73113;SDS011;61301;51.956;5.876;2023-05-10T13:10:18;6.68;;;4.63;;
73113;SDS011;61301;51.956;5.876;2023-05-10T13:12:44;5.07;;;4.10;;
73113;SDS011;61301;51.956;5.876;2023-05-10T13:15:10;6.82;;;5.45;;
73113;SDS011;61301;51.956;5.876;2023-05-10T13:17:36;6.82;;;5.60;;
73113;SDS011;61301;51.956;5.876;2023-05-10T13:20:04;6.50;;;4.20;;
73113;SDS011;61301;51.956;5.876;2023-05-10T13:22:31;4.78;;;3.95;;
73113;SDS011;61301;51.956;5.876;2023-05-10T13:24:57;6.80;;;4.63;;
73113;SDS011;61301;51.956;5.876;2023-05-10T13:27:23;5.13;;;4.55;;
73113;SDS011;61301;51.956;5.876;2023-05-10T13:29:49;6.47;;;4.50;;
73113;SDS011;61301;51.956;5.876;2023-05-10T13:32:15;4.05;;;3.65;;
73113;SDS011;61301;51.956;5.876;2023-05-10T13:34:41;7.43;;;4.00;;
73113;SDS011;61301;51.956;5.876;2023-05-10T13:37:07;8.32;;;5.00;;
73113;SDS011;61301;51.956;5.876;2023-05-10T13:39:33;9.45;;;6.70;;
73113;SDS011;61301;51.956;5.876;2023-05-10T13:42:00;11.50;;;8.27;;
73113;SDS011;61301;51.956;5.876;2023-05-10T13:44:25;8.90;;;7.00;;
73113;SDS011;61301;51.956;5.876;2023-05-10T13:46:52;7.97;;;6.57;;
73113;SDS011;61301;51.956;5.876;2023-05-10T13:49:18;6.88;;;6.15;;
73113;SDS011;61301;51.956;5.876;2023-05-10T13:51:43;7.28;;;6.05;;
73113;SDS011;61301;51.956;5.876;2023-05-10T13:54:10;7.63;;;6.40;;
73113;SDS011;61301;51.956;5.876;2023-05-10T13:56:36;6.47;;;5.88;;
73113;SDS011;61301;51.956;5.876;2023-05-10T13:59:02;8.85;;;7.80;;
73113;SDS011;61301;51.956;5.876;2023-05-10T14:01:28;11.57;;;8.40;;
73113;SDS011;61301;51.956;5.876;2023-05-10T14:03:54;7.88;;;7.07;;
73113;SDS011;61301;51.956;5.876;2023-05-10T14:06:20;9.20;;;8.30;;
73113;SDS011;61301;51.956;5.876;2023-05-10T14:08:46;12.32;;;8.40;;
73113;SDS011;61301;51.956;5.876;2023-05-10T14:11:12;9.35;;;8.35;;
73113;SDS011;61301;51.956;5.876;2023-05-10T14:13:38;9.27;;;7.90;;
73113;SDS011;61301;51.956;5.876;2023-05-10T14:16:04;8.50;;;7.55;;
73113;SDS011;61301;51.956;5.876;2023-05-10T14:18:30;8.57;;;7.25;;
73113;SDS011;61301;51.956;5.876;2023-05-10T14:20:56;10.63;;;9.52;;
73113;SDS011;61301;51.956;5.876;2023-05-10T14:23:22;9.77;;;8.88;;
73113;SDS011;61301;51.956;5.876;2023-05-10T14:25:51;7.05;;;6.45;;
73113;SDS011;61301;51.956;5.876;2023-05-10T14:28:18;7.78;;;6.95;;
73113;SDS011;61301;51.956;5.876;2023-05-10T14:30:44;9.35;;;8.48;;
73113;SDS011;61301;51.956;5.876;2023-05-10T14:33:10;8.48;;;7.70;;
73113;SDS011;61301;51.956;5.876;2023-05-10T14:35:36;5.55;;;4.85;;
73113;SDS011;61301;51.956;5.876;2023-05-10T14:38:03;7.53;;;6.70;;
73113;SDS011;61301;51.956;5.876;2023-05-10T14:40:29;6.90;;;6.22;;
73113;SDS011;61301;51.956;5.876;2023-05-10T14:42:55;5.07;;;4.68;;
73113;SDS011;61301;51.956;5.876;2023-05-10T14:45:22;4.60;;;4.15;;
73113;SDS011;61301;51.956;5.876;2023-05-10T14:47:48;5.45;;;3.90;;
73113;SDS011;61301;51.956;5.876;2023-05-10T14:50:15;4.75;;;4.35;;
73113;SDS011;61301;51.956;5.876;2023-05-10T14:52:43;4.20;;;3.53;;
73113;SDS011;61301;51.956;5.876;2023-05-10T14:55:09;5.45;;;4.07;;
73113;SDS011;61301;51.956;5.876;2023-05-10T14:57:36;3.35;;;3.00;;
73113;SDS011;61301;51.956;5.876;2023-05-10T15:00:02;6.40;;;3.58;;